Time;durP1;ratioP1;P1;durP2;ratioP2;P2;SDS_P1;SDS_P2;PMS_P1;PMS_P2;Temp;Humidity;BMP_temperature;BMP_pressure;BME280_temperature;BME280_humidity;BME280_pressure;Samples;Min_cycle;Max_cycle;Signal;HPM_P1;HPM_P2
2023/08/12 00:02:25;;;;;;;13.98;8.55;;;;;;;17.39;99.94;153065.00;10593909;28;20508;-78
2023/08/12 00:07:26;;;;;;;10.57;7.60;;;;;;;17.27;100.00;153033.91;10577696;28;20039;-77
2023/08/12 00:12:29;;;;;;;9.38;7.57;;;;;;;17.13;100.00;152998.88;10579761;28;20039;-78
2023/08/12 00:17:30;;;;;;;7.90;6.30;;;;;;;16.98;100.00;152958.66;10579544;28;20485;-78
2023/08/12 00:22:32;;;;;;;7.55;6.47;;;;;;;17.01;100.00;152966.44;10596270;28;20051;-78
2023/08/12 00:27:34;;;;;;;7.63;6.80;;;;;;;17.04;100.00;152974.19;10595845;28;20036;-79
2023/08/12 00:32:36;;;;;;;8.57;5.68;;;;;;;16.82;100.00;152918.41;10573990;28;20052;-79
2023/08/12 00:37:38;;;;;;;8.93;6.40;;;;;;;16.92;100.00;152943.09;10575816;28;20044;-79
2023/08/12 00:42:40;;;;;;;7.72;5.25;;;;;;;16.78;100.00;152909.38;10593032;28;20059;-79
2023/08/12 00:47:42;;;;;;;5.75;4.70;;;;;;;16.70;100.00;152887.28;10575088;28;20039;-79
2023/08/12 00:52:44;;;;;;;6.57;5.05;;;;;;;16.75;100.00;152900.28;10576416;28;20126;-78
2023/08/12 00:57:47;;;;;;;4.75;4.25;;;;;;;16.69;100.00;152885.97;10577550;28;20075;-81
2023/08/12 01:02:50;;;;;;;4.10;3.70;;;;;;;16.73;100.00;152895.06;10575556;28;20130;-82
2023/08/12 01:07:53;;;;;;;5.45;3.83;;;;;;;16.62;100.00;152869.09;10594989;28;20538;-80
2023/08/12 01:13:24;;;;;;;3.78;3.42;;;;;;;16.85;100.00;152926.22;10576129;28;20050;-80
2023/08/12 01:18:27;;;;;;;3.78;3.05;;;;;;;16.73;100.00;152896.34;10593969;28;20035;-81
2023/08/12 01:23:28;;;;;;;4.20;3.28;;;;;;;16.61;100.00;152866.50;10575126;28;20043;-81
2023/08/12 01:28:30;;;;;;;4.53;3.35;;;;;;;16.56;100.00;152853.56;10592665;28;20556;-81
2023/08/12 01:33:42;;;;;;;3.13;2.90;;;;;;;16.60;100.00;152863.94;10574271;28;20055;-80
2023/08/12 01:38:45;;;;;;;4.07;3.65;;;;;;;16.57;100.00;152856.13;10574329;28;20066;-81
2023/08/12 01:43:47;;;;;;;3.25;2.33;;;;;;;16.67;100.00;152879.47;10592847;28;20048;-81
2023/08/12 01:48:50;;;;;;;3.17;2.88;;;;;;;16.58;100.00;152858.72;10575450;28;20031;-82
2023/08/12 01:53:51;;;;;;;3.30;3.00;;;;;;;16.47;100.00;152830.22;10574748;28;20130;-81
2023/08/12 01:58:53;;;;;;;3.20;2.90;;;;;;;16.83;100.00;152921.03;10591882;28;20040;-81
2023/08/12 02:03:55;;;;;;;4.00;3.38;;;;;;;16.78;100.00;152909.38;10574119;28;20043;-82
2023/08/12 02:08:57;;;;;;;3.60;3.30;;;;;;;16.68;100.00;152883.34;10592690;28;20058;-82
2023/08/12 02:13:58;;;;;;;3.53;2.95;;;;;;;16.60;100.00;152863.94;10574152;28;20055;-82
2023/08/12 02:19:00;;;;;;;4.53;3.55;;;;;;;16.49;100.00;152834.09;10574525;28;20149;-81
2023/08/12 02:24:02;;;;;;;6.80;4.70;;;;;;;16.36;100.00;152801.66;10572185;28;20062;-82
2023/08/12 02:29:04;;;;;;;3.03;2.50;;;;;;;16.39;100.00;152810.75;10590993;28;20039;-80
2023/08/12 02:34:06;;;;;;;4.45;2.80;;;;;;;16.45;100.00;152823.72;10572651;28;20055;-80
2023/08/12 02:39:07;;;;;;;2.80;2.25;;;;;;;16.49;100.00;152834.09;10590268;28;20470;-80
2023/08/12 02:44:10;;;;;;;3.15;2.47;;;;;;;16.47;100.00;152830.22;10577886;28;20067;-81
2023/08/12 02:49:11;;;;;;;3.13;2.72;;;;;;;16.44;100.00;152822.41;10581625;28;20046;-81
2023/08/12 02:54:13;;;;;;;3.05;2.75;;;;;;;16.65;100.00;152875.59;10582239;28;20126;-80
2023/08/12 02:59:15;;;;;;;4.85;3.17;;;;;;;16.56;100.00;152853.56;10582324;28;20078;-81
2023/08/12 03:04:16;;;;;;;3.53;2.60;;;;;;;16.43;100.00;152819.84;10590766;28;20035;-81
2023/08/12 03:09:20;;;;;;;4.10;2.72;;;;;;;16.26;100.00;152777.03;10635464;28;20032;-81
2023/08/12 03:14:21;;;;;;;3.25;2.47;;;;;;;16.49;100.00;152835.38;10633919;27;20027;-79
2023/08/12 03:19:23;;;;;;;3.22;2.97;;;;;;;16.60;100.00;152863.94;10612807;28;20054;-81
2023/08/12 03:24:25;;;;;;;3.10;2.80;;;;;;;16.55;100.00;152849.63;10626436;28;20030;-82
2023/08/12 03:29:27;;;;;;;3.70;3.08;;;;;;;16.19;100.00;152757.56;10622087;27;20036;-80
2023/08/12 03:34:32;;;;;;;3.33;2.65;;;;;;;16.14;100.00;152747.19;10622416;27;20047;-81
2023/08/12 03:39:34;;;;;;;4.00;2.83;;;;;;;16.16;100.00;152751.13;10621913;27;20027;-80
2023/08/12 03:44:36;;;;;;;3.25;2.58;;;;;;;16.05;100.00;152722.56;10622080;27;20016;-80
2023/08/12 03:49:37;;;;;;;5.38;3.22;;;;;;;16.06;100.00;152725.16;10628428;27;20049;-81
2023/08/12 03:54:39;;;;;;;3.10;2.90;;;;;;;16.08;100.00;152731.66;10605592;28;20047;-81
2023/08/12 03:59:41;;;;;;;2.83;2.60;;;;;;;16.04;100.00;152720.00;10628594;28;20043;-79
2023/08/12 04:04:43;;;;;;;4.68;2.60;;;;;;;16.14;100.00;152747.19;10605476;27;20035;-80
2023/08/12 04:09:45;;;;;;;3.25;2.95;;;;;;;16.25;100.00;152773.16;10603399;28;20048;-82
2023/08/12 04:14:48;;;;;;;3.33;2.80;;;;;;;16.43;100.00;152818.53;10638433;27;20059;-81
2023/08/12 04:19:50;;;;;;;3.00;2.50;;;;;;;16.54;99.86;152847.03;10620709;28;20043;-79
2023/08/12 04:24:52;;;;;;;3.08;2.80;;;;;;;16.58;98.97;152858.72;10621163;27;20028;-81
2023/08/12 04:29:54;;;;;;;3.63;2.83;;;;;;;16.72;97.04;152892.44;10620982;27;20043;-81
2023/08/12 04:34:56;;;;;;;2.55;2.17;;;;;;;16.76;97.34;152902.88;10621242;27;20047;-78
2023/08/12 04:39:59;;;;;;;3.30;2.75;;;;;;;16.94;96.02;152948.25;10621119;27;20082;-75
2023/08/12 04:45:03;;;;;;;2.38;2.17;;;;;;;17.14;93.10;153000.16;10620521;27;20024;-77
2023/08/12 04:50:06;;;;;;;2.55;2.22;;;;;;;17.42;90.14;153070.22;10620068;27;20043;-76
2023/08/12 04:55:10;;;;;;;2.40;2.20;;;;;;;17.47;90.18;153084.47;10603299;27;20095;-76
2023/08/12 05:00:13;;;;;;;2.13;1.92;;;;;;;17.63;87.74;153126.03;10619714;27;20056;-79
2023/08/12 05:05:14;;;;;;;2.92;2.25;;;;;;;17.78;86.10;153163.69;10618764;27;20045;-76
2023/08/12 05:10:17;;;;;;;2.30;2.10;;;;;;;17.88;85.53;153189.69;10619990;27;20057;-77
2023/08/12 05:15:19;;;;;;;2.47;1.92;;;;;;;17.96;86.20;153207.81;10619496;27;20027;-77
2023/08/12 05:20:22;;;;;;;2.05;1.80;;;;;;;18.07;85.00;153237.69;10619200;27;20028;-78
2023/08/12 05:25:23;;;;;;;2.42;2.20;;;;;;;18.37;82.68;153312.97;10619210;27;20028;-76
2023/08/12 05:30:25;;;;;;;3.30;2.33;;;;;;;18.60;80.76;153371.44;10636489;27;20084;-77
2023/08/12 05:35:27;;;;;;;2.67;2.10;;;;;;;18.82;79.17;153428.63;10636411;27;20035;-77
2023/08/12 05:40:29;;;;;;;2.88;2.05;;;;;;;19.00;79.38;153472.78;10635743;27;20023;-78
2023/08/12 05:45:31;;;;;;;2.67;2.28;;;;;;;19.01;78.05;153476.69;10635705;27;20035;-80
2023/08/12 05:50:32;;;;;;;2.45;2.00;;;;;;;19.29;77.79;153546.81;10635339;27;20061;-80
2023/08/12 05:55:37;;;;;;;1.98;1.77;;;;;;;19.61;75.37;153630.06;10634908;27;20043;-78
2023/08/12 06:00:39;;;;;;;1.90;1.80;;;;;;;19.58;74.91;153622.19;10636068;27;20020;-77
2023/08/12 06:05:42;;;;;;;2.75;1.80;;;;;;;19.92;74.87;153708.00;10635328;27;20059;-81
2023/08/12 06:10:44;;;;;;;2.63;2.00;;;;;;;20.39;73.52;153828.91;10634969;27;20040;-81
2023/08/12 06:15:46;;;;;;;2.63;1.70;;;;;;;21.04;69.76;153994.13;10617233;27;20035;-78
2023/08/12 06:20:48;;;;;;;2.22;1.50;;;;;;;21.97;64.81;154230.97;10617306;27;20131;-78
2023/08/12 06:25:49;;;;;;;1.92;1.55;;;;;;;22.45;62.93;154352.09;10617620;27;20055;-77
2023/08/12 06:30:51;;;;;;;1.60;1.50;;;;;;;22.96;61.24;154482.34;10634914;27;20055;-82
2023/08/12 06:35:53;;;;;;;1.92;1.45;;;;;;;22.73;60.89;154423.69;10615796;27;20047;-82
2023/08/12 06:40:55;;;;;;;2.97;1.88;;;;;;;22.66;61.36;154408.03;10633273;28;20032;-83
2023/08/12 06:45:57;;;;;;;2.00;1.67;;;;;;;22.35;62.83;154327.31;10614600;27;20123;-80
2023/08/12 06:50:58;;;;;;;2.75;1.80;;;;;;;22.22;64.65;154294.78;10631222;27;20032;-77
2023/08/12 06:56:00;;;;;;;2.45;2.22;;;;;;;22.55;63.90;154379.41;10613267;27;20056;-83
2023/08/12 07:01:02;;;;;;;2.10;1.45;;;;;;;23.13;62.16;154526.63;10632406;27;20028;-77
2023/08/12 07:06:04;;;;;;;2.08;1.40;;;;;;;23.15;61.33;154531.81;10634198;27;20030;-80
2023/08/12 07:11:06;;;;;;;1.98;1.60;;;;;;;23.05;60.30;154507.06;10614676;27;20027;-81
2023/08/12 07:16:07;;;;;;;1.80;1.70;;;;;;;22.94;61.43;154478.44;10615203;27;20095;-84
2023/08/12 07:21:09;;;;;;;3.08;1.80;;;;;;;23.05;61.86;154507.06;10622004;27;20077;-80
2023/08/12 07:26:11;;;;;;;1.88;1.77;;;;;;;23.30;60.12;154569.63;10632861;27;20047;-82
2023/08/12 07:31:12;;;;;;;3.15;2.03;;;;;;;23.57;59.63;154638.66;10621985;27;20024;-79
2023/08/12 07:36:14;;;;;;;4.45;1.60;;;;;;;23.84;58.95;154707.75;10638004;27;20024;-82
2023/08/12 07:41:16;;;;;;;1.70;1.60;;;;;;;23.91;58.96;154726.00;10638114;27;20024;-81
2023/08/12 07:46:18;;;;;;;1.48;1.38;;;;;;;24.28;56.75;154821.13;10605485;27;20031;-80
2023/08/12 07:51:19;;;;;;;1.85;1.67;;;;;;;24.62;57.52;154908.53;10623460;27;20087;-80
2023/08/12 07:56:21;;;;;;;2.10;1.50;;;;;;;24.98;56.57;154998.50;10640366;27;20053;-80
2023/08/12 08:01:23;;;;;;;2.58;2.00;;;;;;;25.28;57.22;155075.44;10623032;27;20023;-81
2023/08/12 08:06:25;;;;;;;1.80;1.65;;;;;;;25.42;57.04;155112.00;10639980;27;20488;-81
2023/08/12 08:11:26;;;;;;;1.90;1.70;;;;;;;25.53;56.04;155140.66;10621720;27;20032;-80
2023/08/12 08:16:29;;;;;;;3.58;1.60;;;;;;;25.72;56.73;155187.63;10638331;28;20040;-79
2023/08/12 08:21:31;;;;;;;2.53;1.67;;;;;;;26.03;54.74;155268.59;10638322;27;20058;-78
2023/08/12 08:26:32;;;;;;;1.60;1.50;;;;;;;26.28;55.30;155332.50;10621571;27;20028;-79
2023/08/12 08:31:34;;;;;;;2.45;1.67;;;;;;;26.59;52.52;155412.16;10638883;27;20074;-81
2023/08/12 08:36:36;;;;;;;3.15;1.60;;;;;;;26.64;52.82;155423.91;10638486;27;20138;-80
2023/08/12 08:41:39;;;;;;;3.28;1.70;;;;;;;26.94;53.32;155499.63;10636562;27;20024;-78
2023/08/12 08:46:43;;;;;;;2.95;2.00;;;;;;;27.16;52.71;155558.44;10638683;27;20043;-78
2023/08/12 08:51:46;;;;;;;1.88;1.70;;;;;;;27.55;50.28;155657.69;10638655;27;20082;-77
2023/08/12 08:56:49;;;;;;;1.63;1.50;;;;;;;27.74;49.66;155704.75;10637692;27;20053;-76
2023/08/12 09:01:58;;;;;;;1.70;1.60;;;;;;;27.96;50.90;155760.91;10638122;27;20078;-75
2023/08/12 09:07:01;;;;;;;1.70;1.30;;;;;;;28.16;48.75;155814.47;10637675;27;20023;-77
2023/08/12 09:12:09;;;;;;;1.73;1.63;;;;;;;28.23;50.29;155831.44;10603964;27;20035;-75
2023/08/12 09:17:11;;;;;;;1.48;1.10;;;;;;;28.76;48.15;155967.38;10637022;27;20039;-78
2023/08/12 09:22:13;;;;;;;1.17;1.08;;;;;;;28.95;45.97;156014.41;10636992;27;20048;-78
2023/08/12 09:27:18;;;;;;;1.15;1.05;;;;;;;29.33;44.21;156113.81;10635465;27;20087;-77
2023/08/12 09:32:20;;;;;;;1.02;0.93;;;;;;;29.58;43.71;156176.66;10635924;27;20051;-81
2023/08/12 09:37:24;;;;;;;1.15;1.00;;;;;;;29.81;44.58;156235.47;10635452;27;20040;-79
2023/08/12 09:42:28;;;;;;;3.13;1.10;;;;;;;30.36;43.37;156378.06;10636022;27;20023;-79
2023/08/12 09:47:29;;;;;;;0.80;0.80;;;;;;;31.19;38.25;156590.06;10635686;27;20028;-81
2023/08/12 09:52:32;;;;;;;0.80;0.80;;;;;;;31.35;34.86;156632.00;10617333;27;20047;-81
2023/08/12 09:57:41;;;;;;;0.57;0.50;;;;;;;31.19;34.21;156590.06;10613236;27;20047;-78
2023/08/12 10:02:45;;;;;;;0.60;0.60;;;;;;;30.90;35.10;156516.81;10620071;27;20031;-80
2023/08/12 10:07:48;;;;;;;0.85;0.60;;;;;;;30.61;35.13;156440.88;10616263;27;20044;-76
2023/08/12 10:12:50;;;;;;;1.90;0.68;;;;;;;30.74;35.79;156473.63;10634391;27;20024;-81
2023/08/12 10:17:52;;;;;;;0.60;0.60;;;;;;;30.52;35.27;156418.63;10616300;27;20074;-78
2023/08/12 10:22:55;;;;;;;0.73;0.73;;;;;;;30.20;35.19;156336.22;10633797;27;20098;-77
2023/08/12 10:27:57;;;;;;;1.10;0.68;;;;;;;29.79;36.85;156231.53;10633757;27;20028;-79
2023/08/12 10:33:00;;;;;;;0.65;0.60;;;;;;;29.56;37.43;156172.69;10616261;27;20052;-81
2023/08/12 10:38:02;;;;;;;0.88;0.73;;;;;;;29.39;39.05;156128.19;10633857;27;20046;-81
2023/08/12 10:43:04;;;;;;;0.80;0.80;;;;;;;29.29;38.76;156102.06;10633218;27;20051;-81
2023/08/12 10:48:17;;;;;;;0.60;0.60;;;;;;;29.38;39.84;156126.88;10632082;27;20020;-82
2023/08/12 10:53:33;;;;;;;0.65;0.60;;;;;;;29.27;38.94;156098.16;10615905;27;20053;-78
2023/08/12 10:58:44;;;;;;;0.75;0.75;;;;;;;29.39;40.55;156129.50;10615996;27;20060;-78
2023/08/12 11:03:48;;;;;;;0.80;0.80;;;;;;;29.53;39.41;156163.47;10636651;27;20039;-77
2023/08/12 11:08:53;;;;;;;0.63;0.60;;;;;;;29.55;38.74;156170.09;10641258;27;20019;-80
2023/08/12 11:13:58;;;;;;;0.65;0.65;;;;;;;29.91;38.40;156261.63;10639834;27;20076;-81
2023/08/12 11:19:00;;;;;;;;;;;;;;;29.84;37.49;156244.63;10639553;27;20049;-81
2023/08/12 11:24:02;;;;;;;0.65;0.65;;;;;;;29.80;37.93;156232.88;10621655;27;19924;-79
2023/08/12 11:29:11;;;;;;;0.80;0.70;;;;;;;29.80;37.29;156232.88;10622587;27;20055;-79
2023/08/12 11:34:13;;;;;;;0.80;0.80;;;;;;;29.85;39.15;156247.25;10622554;27;20047;-81
2023/08/12 11:39:15;;;;;;;0.80;0.75;;;;;;;29.69;38.92;156204.09;10621047;27;20082;-79
2023/08/12 11:44:22;;;;;;;0.80;0.80;;;;;;;29.50;38.89;156156.97;10619902;27;20036;-79
2023/08/12 11:49:25;;;;;;;0.68;0.68;;;;;;;29.35;38.11;156117.72;10624444;28;20039;-81
2023/08/12 11:54:27;;;;;;;3.63;0.80;;;;;;;29.50;38.71;156156.97;10616414;27;20043;-78
2023/08/12 11:59:31;;;;;;;1.60;0.80;;;;;;;29.84;38.30;156243.34;10610264;28;20044;-79
2023/08/12 12:04:32;;;;;;;0.80;0.80;;;;;;;30.62;36.52;156444.78;10611081;28;20055;-78
2023/08/12 12:09:34;;;;;;;0.82;0.70;;;;;;;31.01;35.25;156544.25;10604172;28;20116;-80
2023/08/12 12:14:36;;;;;;;1.63;0.70;;;;;;;31.29;34.93;156614.97;10606895;28;20043;-79
2023/08/12 12:19:41;;;;;;;0.80;0.75;;;;;;;31.27;35.40;156611.00;10599711;28;20073;-82
2023/08/12 12:24:47;;;;;;;0.80;0.80;;;;;;;31.31;34.75;156620.22;10611550;28;20078;-80
2023/08/12 12:29:49;;;;;;;0.98;0.70;;;;;;;31.01;35.94;156544.25;10618353;28;20048;-80
2023/08/12 12:34:52;;;;;;;1.52;0.90;;;;;;;31.21;36.11;156593.97;10586091;28;20147;-83
2023/08/12 12:39:53;;;;;;;0.85;0.80;;;;;;;31.31;36.47;156620.22;10597400;28;20503;-80
2023/08/12 12:44:55;;;;;;;1.00;0.90;;;;;;;31.52;37.77;156675.19;10582399;28;20036;-81
2023/08/12 12:49:57;;;;;;;1.13;1.00;;;;;;;31.74;36.68;156731.44;10579405;28;20100;-81
2023/08/12 12:55:00;;;;;;;2.97;0.90;;;;;;;31.68;33.89;156715.75;10596841;28;20059;-81
2023/08/12 13:00:04;;;;;;;1.10;0.80;;;;;;;31.31;37.51;156620.22;10578016;28;20064;-80
2023/08/12 13:05:06;;;;;;;0.83;0.80;;;;;;;31.29;37.39;156616.25;10595139;28;20493;-80
2023/08/12 13:10:08;;;;;;;1.02;0.80;;;;;;;31.42;40.16;156649.00;10595808;28;20070;-80
2023/08/12 13:15:10;;;;;;;1.08;1.08;;;;;;;31.53;36.66;156677.81;10594364;28;20048;-79
2023/08/12 13:20:12;;;;;;;1.98;1.10;;;;;;;31.40;38.01;156645.09;10595575;28;20572;-80
2023/08/12 13:25:14;;;;;;;1.08;0.90;;;;;;;31.24;38.21;156601.84;10593614;28;20047;-79
2023/08/12 13:30:15;;;;;;;2.92;1.10;;;;;;;31.19;37.69;156590.06;10595163;28;20480;-80
2023/08/12 13:35:17;;;;;;;1.95;1.15;;;;;;;31.31;38.09;156621.53;10595662;28;20070;-80
2023/08/12 13:40:19;;;;;;;1.23;0.95;;;;;;;31.57;38.46;156688.28;10577681;28;20036;-79
2023/08/12 13:45:21;;;;;;;2.58;1.00;;;;;;;31.86;37.93;156762.91;10595228;28;20044;-80
2023/08/12 13:50:23;;;;;;;1.33;1.00;;;;;;;31.92;36.72;156777.34;10575235;28;20067;-80
2023/08/12 13:55:26;;;;;;;1.13;0.90;;;;;;;31.80;37.41;156747.19;10593808;28;20550;-79
2023/08/12 14:00:27;;;;;;;1.02;0.90;;;;;;;31.57;37.07;156688.28;10604332;28;20036;-80
2023/08/12 14:05:29;;;;;;;1.20;1.10;;;;;;;31.32;37.93;156622.84;10613698;28;20043;-79
2023/08/12 14:10:31;;;;;;;2.30;1.30;;;;;;;31.50;38.13;156669.94;10627373;28;20043;-80
2023/08/12 14:15:33;;;;;;;1.65;1.27;;;;;;;31.37;38.12;156637.22;10610958;28;20058;-80
2023/08/12 14:20:35;;;;;;;1.25;1.00;;;;;;;31.09;40.20;156565.22;10626804;28;20043;-79
2023/08/12 14:25:36;;;;;;;1.38;1.00;;;;;;;30.88;39.57;156511.53;10609453;28;20042;-79
2023/08/12 14:30:38;;;;;;;2.08;1.05;;;;;;;30.81;39.15;156493.25;10602234;28;20075;-79
2023/08/12 14:35:40;;;;;;;1.90;1.10;;;;;;;31.01;38.45;156544.25;10604963;28;20047;-79
2023/08/12 14:40:42;;;;;;;1.40;1.05;;;;;;;30.66;39.13;156455.25;10629505;28;20068;-80
2023/08/12 14:45:47;;;;;;;4.72;1.17;;;;;;;30.72;39.37;156469.66;10620939;28;20047;-80
2023/08/12 14:50:49;;;;;;;1.20;1.10;;;;;;;30.62;39.48;156443.47;10637729;28;20068;-79
2023/08/12 14:55:51;;;;;;;1.25;1.00;;;;;;;29.96;40.73;156273.38;10628645;27;20047;-79
2023/08/12 15:00:52;;;;;;;2.63;1.27;;;;;;;29.69;39.96;156205.38;10590549;28;20036;-78
2023/08/12 15:06:01;;;;;;;1.40;1.30;;;;;;;29.85;40.84;156245.94;10620857;28;20047;-79
2023/08/12 15:11:03;;;;;;;1.58;1.13;;;;;;;30.17;39.92;156328.38;10638225;28;20039;-79
2023/08/12 15:16:05;;;;;;;1.90;1.20;;;;;;;30.51;39.86;156416.00;10639358;27;20047;-80
2023/08/12 15:21:07;;;;;;;3.85;1.17;;;;;;;30.56;38.53;156429.09;10637866;27;20028;-79
2023/08/12 15:26:09;;;;;;;2.00;1.20;;;;;;;30.38;40.41;156382.00;10620651;27;20481;-80
2023/08/12 15:31:12;;;;;;;1.63;1.17;;;;;;;30.23;41.05;156342.75;10588031;28;20061;-80
2023/08/12 15:36:14;;;;;;;3.05;1.38;;;;;;;30.18;40.48;156329.66;10600083;28;20055;-79
2023/08/12 15:41:16;;;;;;;2.17;1.25;;;;;;;29.88;40.84;156253.75;10599251;28;20054;-80
2023/08/12 15:46:19;;;;;;;1.70;1.00;;;;;;;29.61;42.21;156185.75;10580096;28;20051;-80
2023/08/12 15:51:21;;;;;;;1.40;1.30;;;;;;;29.81;41.74;156236.78;10596606;28;20508;-79
2023/08/12 15:56:22;;;;;;;3.28;1.33;;;;;;;30.07;40.63;156302.16;10595823;28;20588;-78
2023/08/12 16:01:24;;;;;;;2.72;1.52;;;;;;;29.89;40.96;156256.41;10597611;28;20069;-79
2023/08/12 16:06:26;;;;;;;1.48;1.38;;;;;;;29.70;42.38;156206.69;10597397;28;20092;-79
2023/08/12 16:11:28;;;;;;;2.13;1.58;;;;;;;29.49;42.59;156153.06;10595621;28;20046;-79
2023/08/12 16:16:31;;;;;;;1.73;1.38;;;;;;;29.31;43.01;156107.31;10577601;28;20512;-79
2023/08/12 16:21:33;;;;;;;2.15;1.73;;;;;;;29.16;42.68;156069.38;10587149;28;20036;-79
2023/08/12 16:26:34;;;;;;;2.67;1.92;;;;;;;29.11;43.25;156056.31;10578925;28;20082;-79
2023/08/12 16:31:36;;;;;;;1.58;1.48;;;;;;;28.99;43.69;156024.94;10596888;28;20067;-79
2023/08/12 16:36:41;;;;;;;2.17;1.52;;;;;;;28.87;43.71;155994.84;10599300;28;20048;-79
2023/08/12 16:41:42;;;;;;;1.65;1.55;;;;;;;28.77;45.28;155968.69;10596721;28;20036;-79
2023/08/12 16:46:44;;;;;;;4.43;2.10;;;;;;;28.60;46.75;155926.91;10576877;28;20051;-81
2023/08/12 16:51:46;;;;;;;1.42;1.10;;;;;;;27.62;50.79;155674.63;10578185;28;20043;-81
2023/08/12 16:56:48;;;;;;;2.30;1.35;;;;;;;26.06;64.55;155276.41;10594841;28;20082;-81
2023/08/12 17:01:49;;;;;;;2.15;1.38;;;;;;;24.74;74.35;154937.19;10595214;28;20493;-81
2023/08/12 17:06:52;;;;;;;2.05;1.42;;;;;;;24.21;79.03;154801.56;10598733;28;20055;-81
2023/08/12 17:11:53;;;;;;;1.58;1.23;;;;;;;23.76;84.66;154688.19;10596211;28;20103;-81
2023/08/12 17:16:55;;;;;;;2.03;1.42;;;;;;;23.35;93.64;154583.94;10576547;28;20044;-80
2023/08/12 17:21:57;;;;;;;2.03;1.50;;;;;;;22.88;100.00;154462.75;10614813;28;20044;-79
2023/08/12 17:26:59;;;;;;;2.60;1.30;;;;;;;22.61;100.00;154395.03;10615500;28;20408;-79
2023/08/12 17:32:01;;;;;;;2.55;1.85;;;;;;;22.41;100.00;154344.28;10595380;28;20115;-79
2023/08/12 17:37:03;;;;;;;2.10;1.50;;;;;;;22.30;100.00;154314.31;10576682;28;20044;-81
2023/08/12 17:42:05;;;;;;;4.40;2.08;;;;;;;22.11;100.00;154267.41;10595138;28;20485;-81
2023/08/12 17:47:07;;;;;;;3.22;1.80;;;;;;;22.04;100.00;154249.16;10594945;28;20035;-81
2023/08/12 17:52:08;;;;;;;1.63;1.38;;;;;;;22.00;100.00;154238.81;10594571;28;20075;-82
2023/08/12 17:57:10;;;;;;;2.55;1.48;;;;;;;21.80;100.00;154186.72;10593296;28;20044;-81
2023/08/12 18:02:12;;;;;;;2.22;2.00;;;;;;;21.81;100.00;154190.63;10593828;28;20051;-81
2023/08/12 18:07:14;;;;;;;3.47;2.33;;;;;;;21.84;100.00;154197.13;10592158;28;20044;-81
2023/08/12 18:12:15;;;;;;;2.67;2.45;;;;;;;21.98;100.00;154233.56;10576361;28;20070;-81
2023/08/12 18:17:19;;;;;;;3.55;3.25;;;;;;;22.04;100.00;154249.16;10593342;28;20040;-82
2023/08/12 18:22:21;;;;;;;2.95;2.60;;;;;;;22.15;100.00;154276.59;10594441;28;20481;-80
2023/08/12 18:27:23;;;;;;;2.67;1.75;;;;;;;22.08;100.00;154259.59;10573235;28;20489;-80
2023/08/12 18:32:25;;;;;;;2.00;1.80;;;;;;;22.10;100.00;154264.81;10576257;28;20088;-81
2023/08/12 18:37:30;;;;;;;3.72;1.92;;;;;;;22.08;100.00;154258.28;10596046;28;20438;-81
2023/08/12 18:42:32;;;;;;;2.42;1.92;;;;;;;21.97;100.00;154230.97;10594527;28;20051;-80
2023/08/12 18:47:34;;;;;;;2.42;1.40;;;;;;;21.82;100.00;154193.19;10576225;28;20048;-81
2023/08/12 18:52:36;;;;;;;3.25;1.70;;;;;;;21.79;100.00;154184.13;10598678;28;20103;-79
2023/08/12 18:57:38;;;;;;;2.00;1.67;;;;;;;21.72;100.00;154167.19;10590608;28;20043;-80
2023/08/12 19:02:40;;;;;;;2.05;1.40;;;;;;;21.49;100.00;154108.66;10585604;28;20048;-81
2023/08/12 19:07:42;;;;;;;1.63;1.30;;;;;;;21.26;100.00;154048.75;10588230;28;20039;-81
2023/08/12 19:12:44;;;;;;;1.65;1.30;;;;;;;21.19;100.00;154030.53;10588714;28;20039;-80
2023/08/12 19:17:46;;;;;;;1.52;1.35;;;;;;;21.13;100.00;154016.25;10604900;28;20047;-81
2023/08/12 19:22:47;;;;;;;1.50;1.20;;;;;;;21.01;100.00;153985.00;10585753;28;20052;-82
2023/08/12 19:27:49;;;;;;;2.33;2.08;;;;;;;20.98;100.00;153978.47;10594164;28;20488;-81
2023/08/12 19:32:53;;;;;;;1.98;1.60;;;;;;;20.88;100.00;153953.78;10611682;28;20039;-80
2023/08/12 19:37:58;;;;;;;1.40;1.13;;;;;;;20.86;100.00;153948.59;10593484;28;20050;-81
2023/08/12 19:43:00;;;;;;;1.20;1.08;;;;;;;20.87;100.00;153951.19;10612135;28;20043;-80
2023/08/12 19:48:02;;;;;;;1.73;1.63;;;;;;;20.85;100.00;153946.00;10617122;28;20044;-80
2023/08/12 19:53:04;;;;;;;1.20;1.02;;;;;;;20.86;100.00;153948.59;10601955;28;20040;-81
2023/08/12 19:58:06;;;;;;;2.17;1.20;;;;;;;20.84;100.00;153942.06;10610845;28;20044;-80
2023/08/12 20:03:08;;;;;;;1.42;1.10;;;;;;;20.95;100.00;153970.72;10609280;28;20046;-80
2023/08/12 20:08:10;;;;;;;2.08;1.30;;;;;;;20.90;100.00;153957.72;10592161;28;20043;-80
2023/08/12 20:13:12;;;;;;;2.25;1.80;;;;;;;20.92;100.00;153962.91;10594634;28;20043;-82
2023/08/12 20:18:14;;;;;;;3.67;2.38;;;;;;;20.86;100.00;153948.59;10612545;28;20442;-82
2023/08/12 20:23:15;;;;;;;2.50;2.30;;;;;;;20.71;100.00;153909.56;10592788;28;20058;-81
2023/08/12 20:28:17;;;;;;;1.83;1.67;;;;;;;20.62;100.00;153886.16;10610121;28;20084;-82
2023/08/12 20:33:19;;;;;;;1.70;1.60;;;;;;;20.59;100.00;153879.69;10609561;28;20096;-81
2023/08/12 20:38:21;;;;;;;1.45;1.15;;;;;;;20.56;100.00;153871.88;10608350;28;20103;-80
2023/08/12 20:43:24;;;;;;;1.10;1.00;;;;;;;20.65;100.00;153895.28;10609340;28;20047;-80
2023/08/12 20:48:25;;;;;;;1.52;1.38;;;;;;;20.78;100.00;153926.50;10607435;28;20051;-80
2023/08/12 20:53:29;;;;;;;1.70;1.60;;;;;;;20.92;100.00;153962.91;10589484;28;20048;-80
2023/08/12 20:58:31;;;;;;;2.72;1.65;;;;;;;20.99;100.00;153979.84;10603677;28;20493;-80
2023/08/12 21:03:33;;;;;;;2.10;1.50;;;;;;;20.97;100.00;153974.59;10630330;28;20413;-80
2023/08/12 21:08:35;;;;;;;1.42;1.20;;;;;;;20.91;100.00;153960.31;10621720;28;20075;-82
2023/08/12 21:13:37;;;;;;;0.85;0.70;;;;;;;20.92;98.75;153962.91;10597905;28;20088;-80
2023/08/12 21:18:39;;;;;;;1.45;0.80;;;;;;;20.91;96.91;153960.31;10597040;28;20039;-81
2023/08/12 21:23:40;;;;;;;2.20;0.80;;;;;;;20.92;94.81;153964.19;10608372;28;20043;-81
2023/08/12 21:28:42;;;;;;;0.90;0.68;;;;;;;20.99;94.18;153979.84;10612654;28;20027;-79
2023/08/12 21:33:44;;;;;;;1.27;0.82;;;;;;;21.05;92.17;153996.72;10634129;27;20038;-80
2023/08/12 21:38:45;;;;;;;1.00;0.50;;;;;;;21.07;88.45;154001.94;10634994;28;20156;-79
2023/08/12 21:43:47;;;;;;;1.30;0.70;;;;;;;21.28;87.26;154053.94;10616835;27;20047;-81
2023/08/12 21:48:49;;;;;;;0.40;0.40;;;;;;;21.45;84.49;154098.25;10605800;28;20543;-82
2023/08/12 21:53:51;;;;;;;0.57;0.55;;;;;;;21.52;84.28;154115.19;10604599;28;20039;-81
2023/08/12 21:58:53;;;;;;;0.80;0.60;;;;;;;21.45;86.26;154098.25;10579831;28;20108;-80
2023/08/12 22:03:55;;;;;;;2.05;0.80;;;;;;;21.44;83.62;154094.34;10562301;28;20040;-81
2023/08/12 22:08:57;;;;;;;0.77;0.77;;;;;;;21.35;84.96;154073.53;10560558;28;20048;-81
2023/08/12 22:13:58;;;;;;;1.35;0.80;;;;;;;21.40;84.08;154086.53;10571202;28;20501;-80
2023/08/12 22:19:00;;;;;;;1.10;0.70;;;;;;;21.32;84.52;154065.69;10588264;28;20044;-80
2023/08/12 22:24:02;;;;;;;1.02;0.63;;;;;;;21.34;84.64;154069.63;10600217;28;20040;-80
2023/08/12 22:29:03;;;;;;;0.77;0.65;;;;;;;21.36;84.07;154074.81;10591693;28;20032;-80
2023/08/12 22:34:07;;;;;;;0.63;0.57;;;;;;;21.28;84.43;154053.94;10567898;28;20036;-81
2023/08/12 22:39:09;;;;;;;1.27;0.80;;;;;;;21.24;84.89;154043.53;10590203;28;20039;-81
2023/08/12 22:44:11;;;;;;;0.88;0.70;;;;;;;21.20;85.05;154034.41;10597792;28;20135;-80
2023/08/12 22:49:13;;;;;;;1.77;1.23;;;;;;;21.14;85.15;154020.13;10601341;28;20122;-80
2023/08/12 22:54:15;;;;;;;1.10;0.80;;;;;;;21.21;85.14;154037.06;10582490;28;20071;-80
2023/08/12 22:59:17;;;;;;;1.90;1.17;;;;;;;21.15;85.50;154022.72;10584751;28;20051;-80
2023/08/12 23:04:19;;;;;;;1.13;0.80;;;;;;;21.17;84.45;154027.94;10610095;28;20053;-79